Latest Weather Observations for Borroloola

IDD60801

Issued at 11:41 pm CST Wednesday 20 February 2019 (issued every 10 minutes, with the page automatically refreshed every 10 minutes)

About weather observations | Map of weather stations | Latest weather observations for NT | Other Formats
Station Details ID: 014723 Name: BORROLOOLA AIRPORT Lat: -16.08 Lon: 136.30 Height: 16.1 m
Data from the previous 72 hours. | See also: Recent months at Borroloola
Date/Time
CST
Temp
°C
App
Temp
°C
Dew
Point
°C
Rel
Hum
%
Delta-T
°C
Wind Press
QNH
hPa
Press
MSL
hPa
Rain since
9am
mm
Dir  Spd
km/h
Gust
km/h
Spd
kts
Gust
kts
20/11:30pm 29.0 34.6 25.8 83 2.3 N 7 9 4 5 1008.2 1008.1 0.2
20/11:00pm 28.9 34.7 25.7 83 2.3 NW 6 7 3 4 1008.3 1008.2 0.2
20/10:30pm 29.3 35.1 25.7 81 2.6 N 6 9 3 5 1008.2 1008.1 0.2
20/10:00pm 29.5 34.9 25.5 79 2.8 NNE 7 11 4 6 1008.0 1007.9 0.2
20/09:30pm 29.9 35.4 25.6 78 3.0 N 7 13 4 7 1008.0 1007.9 0.2
20/09:00pm 30.3 34.9 25.4 75 3.5 N 11 17 6 9 1007.8 1007.7 0.2
20/08:30pm 30.7 35.1 25.1 72 4.0 N 11 15 6 8 1007.8 1007.7 0.2
20/08:00pm 31.4 35.0 25.0 69 4.5 NNE 15 19 8 10 1007.3 1007.2 0.2
20/07:30pm 31.8 36.3 25.2 68 4.7 N 11 17 6 9 1007.0 1006.9 0.2
20/07:00pm 33.1 37.0 24.8 61 5.9 NNE 13 20 7 11 1006.7 1006.6 0.2
20/06:30pm 34.2 37.9 24.5 57 6.8 NNE 13 17 7 9 1006.5 1006.4 0.2
20/06:00pm 35.9 38.4 23.2 48 8.9 NNE 15 24 8 13 1006.1 1006.0 0.2
20/05:30pm 37.3 37.6 18.8 33 12.3 NNE 15 20 8 11 1006.0 1005.9 0.2
20/05:00pm 38.5 38.5 18.9 32 13.0 N 17 20 9 11 1006.0 1005.9 0.2
20/04:30pm 39.1 40.1 19.4 31 13.2 N 13 19 7 10 1006.1 1006.0 0.2
20/04:00pm 39.3 40.8 19.0 30 13.5 NW 9 15 5 8 1006.1 1006.0 0.2
20/03:30pm 39.1 41.4 19.4 31 13.2 W 6 11 3 6 1006.3 1006.2 0.2
20/03:00pm 39.0 40.9 19.8 32 12.9 NW 9 15 5 8 1006.7 1006.6 0.2
20/02:30pm 38.8 40.0 19.1 31 13.1 SW 11 17 6 9 1007.1 1007.0 0.2
20/02:00pm 38.6 41.8 23.0 40 10.9 WNW 11 17 6 9 1007.5 1007.4 0.2
20/01:30pm 38.0 39.6 20.8 37 11.7 W 13 19 7 10 1008.0 1007.9 0.2
20/01:00pm 37.0 38.8 21.2 40 10.8 WNW 13 20 7 11 1008.4 1008.3 0.2
20/12:30pm 36.8 38.8 22.2 43 10.1 WNW 15 24 8 13 1009.0 1008.9 0.2
20/12:00pm 35.8 39.2 22.7 46 9.1 WNW 9 15 5 8 1009.7 1009.6 0.2
20/11:30am 35.0 38.2 22.3 47 8.7 WSW 9 13 5 7 1010.4 1010.3 0.2
20/11:00am 34.7 37.6 23.1 51 8.0 SSW 13 17 7 9 1011.1 1011.0 0.2
20/10:30am 33.7 35.9 21.8 49 8.1 WSW 13 20 7 11 1011.6 1011.5 0.2
20/10:00am 33.2 35.0 22.6 53 7.3 WSW 17 24 9 13 1011.6 1011.5 0.2
20/09:30am 32.3 33.4 22.4 56 6.8 WSW 20 28 11 15 1011.7 1011.6 0.2
20/09:00am 30.9 34.2 22.5 61 5.7 WSW 9 13 5 7 1011.7 1011.6 11.8
20/08:30am 29.5 32.9 22.7 67 4.6 WSW 9 13 5 7 1011.6 1011.5 11.8
20/08:00am 28.0 32.5 23.6 77 3.0 SW 6 9 3 5 1011.6 1011.5 11.8
20/07:30am 26.6 32.6 24.3 87 1.6 CALM 0 4 0 2 1011.3 1011.2 11.8
20/07:00am 26.2 32.4 24.6 91 1.1 CALM 0 0 0 0 1010.8 1010.7 11.8
20/06:30am 26.0 32.0 24.2 90 1.2 CALM 0 0 0 0 1010.6 1010.5 11.8
20/06:00am 25.8 31.5 23.8 89 1.4 CALM 0 0 0 0 1010.3 1010.2 11.8
20/05:30am 25.8 31.5 23.8 89 1.4 CALM 0 0 0 0 1010.0 1009.9 11.8
20/05:00am 25.8 31.5 23.8 89 1.4 CALM 0 0 0 0 1009.7 1009.6 11.8
20/04:30am 25.7 31.4 23.7 89 1.4 CALM 0 0 0 0 1009.4 1009.3 11.8
20/04:00am 25.6 29.7 22.9 85 1.8 NNE 6 7 3 4 1009.2 1009.1 11.8
20/03:30am 25.3 29.1 22.8 86 1.7 NE 7 9 4 5 1009.1 1009.0 11.8
20/03:00am 25.3 30.3 23.2 88 1.4 NE 2 6 1 3 1009.0 1008.9 11.8
20/02:30am 25.3 30.3 23.2 88 1.4 N 2 7 1 4 1009.0 1008.9 11.8
20/02:00am 25.3 30.6 23.0 87 1.6 CALM 0 0 0 0 1009.1 1009.0 11.8
20/01:30am 25.2 29.1 22.9 87 1.6 N 7 7 4 4 1009.2 1009.1 11.8
20/01:00am 25.3 29.1 22.8 86 1.7 NNE 7 9 4 5 1009.8 1009.7 11.8
20/12:30am 25.7 31.4 23.7 89 1.4 CALM 0 0 0 0 1009.7 1009.6 11.8
20/12:00am 25.7 30.2 23.6 88 1.4 ENE 6 9 3 5 1009.7 1009.6 11.8
 
Date/Time
CST
Temp
°C
App
Temp
°C
Dew
Point
°C
Rel
Hum
%
Delta-T
°C
Wind Press
QNH
hPa
Press
MSL
hPa
Rain since
9am
mm
Dir  Spd
km/h
Gust
km/h
Spd
kts
Gust
kts
19/11:30pm 25.5 29.7 23.2 87 1.6 NNE 6 7 3 4 1010.0 1009.9 11.8
19/11:00pm 25.5 29.7 23.2 87 1.6 W 6 11 3 6 1010.1 1010.0 11.8
19/10:30pm 25.4 29.3 22.5 84 2.0 N 6 7 3 4 1009.6 1009.5 11.8
19/10:00pm 25.7 29.6 22.6 83 2.1 NW 6 7 3 4 1009.3 1009.2 11.6
19/09:30pm 25.9 29.3 22.0 79 2.6 N 7 13 4 7 1009.2 1009.1 11.6
19/09:00pm 25.9 27.7 21.8 78 2.7 N 15 19 8 10 1009.0 1008.9 11.6
19/08:30pm 25.8 28.6 22.3 81 2.4 NE 11 15 6 8 1008.9 1008.8 11.6
19/08:00pm 25.1 28.9 22.8 87 1.6 NNW 7 11 4 6 1008.5 1008.4 11.6
19/07:30pm 24.6 25.9 20.9 80 2.4 W 15 24 8 13 1008.2 1008.1 11.6
19/07:00pm 24.9 25.6 21.2 80 2.4 NE 19 30 10 16 1008.7 1008.6 10.8
19/06:30pm 24.8 22.1 19.6 73 3.4 NNE 33 65 18 35 1007.2 1007.1 9.4
19/06:26pm 25.7 23.1 19.6 69 3.9 E 32 65 17 35 1007.6 1007.5 9.0
19/06:24pm 25.8 24.2 20.1 71 3.7 SE 28 56 15 30 1007.8 1007.7 8.4
19/06:23pm 26.0 25.2 20.8 73 3.4 SE 26 56 14 30 1008.2 1008.1 7.6
19/06:19pm 28.1 27.8 20.4 63 5.1 SE 22 37 12 20 1007.6 1007.5 1.6
19/06:00pm 33.3 32.9 19.0 42 9.4 ENE 19 46 10 25 1006.8 1006.7 0.0
19/05:59pm 33.5 33.4 18.8 41 9.6 NE 17 46 9 25 1006.8 1006.7 0.0
19/05:30pm 38.2 40.3 20.9 36 11.8 NNW 11 20 6 11 1005.7 1005.6 0.0
19/05:00pm 37.4 39.5 20.2 36 11.6 N 9 17 5 9 1005.6 1005.5 0.0
19/04:30pm 39.0 41.2 21.2 35 12.2 W 11 17 6 9 1005.7 1005.6 0.0
19/04:00pm 39.3 41.0 21.0 34 12.5 NW 13 20 7 11 1005.6 1005.5 0.0
19/03:30pm 38.5 41.8 20.8 36 12.1 NNW 4 11 2 6 1005.9 1005.8 0.0
19/03:00pm 38.9 41.1 21.1 35 12.2 NW 11 15 6 8 1006.5 1006.4 0.0
19/02:30pm 38.7 41.8 21.4 36 11.9 W 7 13 4 7 1007.1 1007.0 0.0
19/02:00pm 37.6 40.3 22.1 40 10.7 WNW 11 19 6 10 1007.7 1007.6 0.0
19/01:30pm 37.4 40.8 22.7 42 10.2 WSW 9 19 5 10 1008.2 1008.1 0.0
19/01:00pm 36.6 40.4 23.4 46 9.2 W 9 15 5 8 1008.9 1008.8 0.0
19/12:30pm 35.8 40.6 24.1 51 8.2 NW 6 15 3 8 1009.4 1009.3 0.0
19/12:00pm 34.3 39.7 23.9 54 7.3 NW 2 9 1 5 1010.0 1009.9 0.0
19/11:30am 34.0 38.0 23.7 55 7.2 W 9 15 5 8 1010.4 1010.3 0.0
19/11:00am 32.6 36.7 23.3 58 6.4 SW 7 11 4 6 1010.6 1010.5 0.0
19/10:30am 32.8 37.3 23.7 58 6.3 SW 6 13 3 7 1010.8 1010.7 0.0
19/10:00am 30.6 34.1 21.9 59 5.9 SE 6 9 3 5 1011.0 1010.9 0.0
19/09:30am 29.9 34.3 22.1 63 5.3 NNW 2 11 1 6 1010.9 1010.8 0.0
19/09:00am 28.3 30.3 20.8 63 5.0 S 11 15 6 8 1010.7 1010.6 3.2
19/08:30am 27.7 28.4 20.5 65 4.7 NW 17 24 9 13 1009.9 1009.8 3.2
19/08:00am 25.4 26.5 20.4 74 3.3 W 15 22 8 12 1010.6 1010.5 3.2
19/07:30am 26.8 26.3 19.9 66 4.5 SSW 22 61 12 33 1012.0 1011.9 3.0
19/07:00am 28.1 32.5 26.3 90 1.3 SE 15 22 8 12 1010.8 1010.7 3.0
19/06:30am 27.6 34.6 25.8 90 1.3 CALM 0 0 0 0 1009.8 1009.7 3.0
19/06:00am 27.8 33.3 25.6 88 1.6 NNW 7 11 4 6 1009.0 1008.9 3.0
19/05:30am 28.1 31.8 25.7 87 1.7 N 17 22 9 12 1008.9 1008.8 3.0
19/05:00am 27.9 32.3 25.7 88 1.6 N 13 20 7 11 1009.0 1008.9 3.0
19/04:30am 29.4 33.5 25.2 78 3.0 NNE 13 20 7 11 1009.3 1009.2 0.0
19/04:00am 29.5 33.0 25.5 79 2.8 N 17 26 9 14 1008.8 1008.7 0.0
19/03:30am 29.2 33.6 25.6 81 2.5 NNW 13 20 7 11 1008.6 1008.5 0.0
19/03:00am 29.0 34.7 25.6 82 2.4 NNW 6 9 3 5 1008.6 1008.5 0.0
19/02:30am 28.9 33.6 25.5 82 2.4 N 11 13 6 7 1008.3 1008.2 0.0
19/02:00am 28.9 33.5 25.3 81 2.5 N 11 15 6 8 1008.5 1008.4 0.0
19/01:30am 29.3 33.6 25.5 80 2.7 N 13 17 7 9 1008.5 1008.4 0.0
19/01:00am 29.4 33.6 25.4 79 2.8 N 13 19 7 10 1008.7 1008.6 0.0
19/12:30am 29.5 33.8 25.5 79 2.8 N 13 19 7 10 1008.7 1008.6 0.0
19/12:00am 29.2 33.9 25.6 81 2.5 NNE 11 17 6 9 1008.7 1008.6 0.0
 
Date/Time
CST
Temp
°C
App
Temp
°C
Dew
Point
°C
Rel
Hum
%
Delta-T
°C
Wind Press
QNH
hPa
Press
MSL
hPa
Rain since
9am
mm
Dir  Spd
km/h
Gust
km/h
Spd
kts
Gust
kts
18/11:30pm 29.2 34.3 25.6 81 2.5 NNE 9 13 5 7 1008.9 1008.8 0.0
18/11:00pm 29.2 34.6 25.4 80 2.7 NNE 7 11 4 6 1008.8 1008.7 0.0
18/10:30pm 29.4 34.8 25.4 79 2.8 NNW 7 9 4 5 1008.9 1008.8 0.0
18/10:00pm 29.9 34.9 25.4 77 3.2 NNE 9 11 5 6 1008.7 1008.6 0.0
18/09:30pm 30.1 34.6 25.2 75 3.5 NNW 11 15 6 8 1008.4 1008.3 0.0
18/09:00pm 30.3 34.9 24.7 72 3.9 N 9 13 5 7 1008.0 1007.9 0.0
18/08:30pm 30.5 34.9 24.4 70 4.3 NNE 9 13 5 7 1007.6 1007.5 0.0
18/08:00pm 31.1 34.8 24.5 68 4.6 N 13 19 7 10 1007.4 1007.3 0.0
18/07:30pm 31.6 34.7 24.2 65 5.2 NNE 15 22 8 12 1007.1 1007.0 0.0
18/07:00pm 32.4 35.5 24.2 62 5.7 NNE 15 24 8 13 1006.8 1006.7 0.0
18/06:30pm 33.6 36.3 24.2 58 6.6 NNE 17 20 9 11 1006.6 1006.5 0.0
18/06:00pm 34.9 37.5 23.9 53 7.7 NNE 17 22 9 12 1006.1 1006.0 0.0
18/05:30pm 36.7 37.2 20.1 38 11.2 N 17 20 9 11 1005.8 1005.7 0.0
18/05:00pm 35.5 38.2 22.1 45 9.2 ENE 11 15 6 8 1005.6 1005.5 0.0
18/04:30pm 37.5 38.9 20.3 36 11.6 N 13 26 7 14 1006.2 1006.1 0.0
18/04:00pm 38.1 38.4 19.5 33 12.4 NNW 17 26 9 14 1005.8 1005.7 0.0
18/03:30pm 37.9 38.5 20.2 35 12.0 N 17 22 9 12 1006.0 1005.9 0.0
18/03:00pm 38.3 40.3 21.5 38 11.5 NNW 13 22 7 12 1006.4 1006.3 0.0
18/02:30pm 37.3 40.0 22.2 41 10.4 NW 11 17 6 9 1006.9 1006.8 0.0
18/02:00pm 37.7 40.5 23.0 43 10.2 NW 13 20 7 11 1007.5 1007.4 0.0
18/01:30pm 36.7 40.0 23.2 46 9.4 WNW 11 17 6 9 1008.0 1007.9 0.0
18/01:00pm 36.4 40.1 23.3 47 9.1 NNW 9 15 5 8 1008.7 1008.6 0.0
18/12:30pm 36.3 38.6 22.8 45 9.4 WNW 15 22 8 12 1009.3 1009.2 0.0
18/12:00pm 35.1 38.1 23.4 50 8.2 W 13 20 7 11 1009.8 1009.7 0.0
18/11:30am 34.4 38.0 23.1 51 7.8 NW 9 17 5 9 1010.1 1010.0 0.0
18/11:00am 34.6 37.7 23.6 52 7.7 NW 13 17 7 9 1010.6 1010.5 0.0
18/10:30am 33.3 37.0 23.9 58 6.6 NW 11 17 6 9 1010.8 1010.7 0.0
18/10:00am 32.5 35.5 23.4 58 6.3 N 13 20 7 11 1011.1 1011.0 0.0
18/09:30am 32.4 36.0 25.0 65 5.2 NW 15 20 8 11 1011.3 1011.2 0.0
18/09:00am 31.5 36.5 25.4 70 4.3 NNW 9 15 5 8 1011.4 1011.3 0.0
18/08:30am 29.6 35.9 24.7 75 3.4 CALM 0 6 0 3 1011.1 1011.0 0.0
18/08:00am 27.5 33.4 24.7 85 1.9 WSW 2 6 1 3 1011.1 1011.0 0.0
18/07:30am 26.5 32.6 24.5 89 1.4 CALM 0 0 0 0 1010.6 1010.5 0.0
18/07:00am 25.5 30.3 24.1 92 1.0 S 6 7 3 4 1010.0 1009.9 0.0
18/06:30am 25.0 29.4 23.4 91 1.1 S 6 7 3 4 1009.7 1009.6 0.0
18/06:00am 25.3 30.8 23.4 89 1.3 CALM 0 0 0 0 1009.0 1008.9 0.0
18/05:30am 25.4 29.7 23.3 88 1.4 SSE 6 9 3 5 1008.9 1008.8 0.0
18/05:00am 25.9 31.5 23.6 87 1.6 CALM 0 0 0 0 1008.6 1008.5 0.0
18/04:30am 25.9 31.5 23.6 87 1.6 CALM 0 0 0 0 1008.3 1008.2 0.0
18/04:00am 25.8 31.4 23.5 87 1.6 CALM 0 6 0 3 1007.9 1007.8 0.0
18/03:30am 25.6 30.3 23.3 87 1.6 N 4 7 2 4 1008.0 1007.9 0.0
18/03:00am 25.5 31.1 23.6 89 1.3 CALM 0 0 0 0 1008.1 1008.0 0.0
18/02:30am 25.5 31.1 23.6 89 1.3 CALM 0 0 0 0 1008.1 1008.0 0.0
18/02:00am 25.7 31.4 23.7 89 1.4 CALM 0 0 0 0 1008.4 1008.3 0.0
18/01:30am 25.7 31.3 23.6 88 1.4 CALM 0 0 0 0 1008.6 1008.5 0.0
18/01:00am 25.6 31.3 23.7 89 1.3 CALM 0 0 0 0 1008.8 1008.7 0.0
18/12:30am 25.4 30.6 22.9 86 1.7 CALM 0 0 0 0 1008.9 1008.8 0.0
18/12:00am 25.4 30.2 22.9 86 1.7 N 2 7 1 4 1009.2 1009.1 0.0

Other formats

Comma delimited format used in spreadsheet applications
http://www.bom.gov.au/fwo/IDD60801/IDD60801.94152.axf

JavaScript Object Notation format (JSON) in row-major order
http://www.bom.gov.au/fwo/IDD60801/IDD60801.94152.json

Data quality

Most of these data are generated automatically and are frequently updated. Quality checks on data are not normally performed. It is possible for incorrect values to appear. Refer to information at About Latest Weather Observations and please check the disclaimer before using these data.